NCAR-RAP Real-Time Weather Data

Output produced by METARs form (19 June 2019  11:03 UTC)
found at http://weather.rap.ucar.edu/surface/
 
KHSI 191053Z AUTO 02005KT 1/2SM FG VV002 15/15 A2987 RMK AO2 SLP108 T01500150
KHSI 191046Z AUTO 02005KT 1/2SM FG VV002 16/15 A2987 RMK AO2 T01560150
KHSI 191036Z AUTO 04004KT 1 3/4SM BR OVC002 15/15 A2987 RMK AO2 T01500150
KHSI 191025Z AUTO 05004KT 1/2SM FG VV002 15/15 A2986 RMK AO2 T01500150
KHSI 191018Z AUTO 03004KT 1SM BR VV002 15/15 A2987 RMK AO2 T01500150
KHSI 190953Z AUTO 03005KT 2SM BR OVC002 15/15 A2987 RMK AO2 SLP107 T01500150
KHSI 190931Z AUTO 03005KT 3SM BR OVC002 15/15 A2987 RMK AO2 T01500150
KHSI 190922Z AUTO 01005KT 1SM BR OVC002 16/15 A2986 RMK AO2 T01560150
KHSI 190910Z AUTO 36005KT 2 1/2SM BR OVC002 16/15 A2986 RMK AO2 T01560150
KHSI 190902Z AUTO 02005KT 1 3/4SM BR OVC002 16/15 A2986 RMK AO2 T01560150
KHSI 190853Z AUTO 36005KT 2 1/2SM BR OVC002 15/15 A2986 RMK AO2 SLP105 T01500150 58005
KHSI 190820Z AUTO 05005KT 2SM BR OVC002 15/15 A2988 RMK AO2 T01500150
KHSI 190753Z AUTO 04004KT 1 3/4SM BR OVC002 16/15 A2989 RMK AO2 SLP112 T01560150
KHSI 190748Z AUTO 04004KT 2 1/2SM BR OVC002 16/15 A2989 RMK AO2
KHSI 190709Z AUTO 05006KT 5SM BR OVC004 16/15 A2989 RMK AO2 T01560150
KHSI 190653Z AUTO 03008KT 6SM BR OVC005 16/14 A2988 RMK AO2 SLP109 T01560144
KHSI 190614Z AUTO 02004KT 7SM OVC005 16/14 A2991 RMK AO2 T01560144
KHSI 190553Z AUTO 02005KT 6SM BR OVC004 16/14 A2991 RMK AO2 SLP122 60000 T01560144 10167 20156 401940156 58007
KHSI 190526Z AUTO 02007KT 6SM BR OVC004 16/14 A2991 RMK AO2 T01560144
KHSI 190453Z AUTO 02006KT 6SM BR OVC005 16/14 A2992 RMK AO2 SLP123 T01560144
KHSI 190353Z AUTO 03006KT 8SM OVC006 16/14 A2994 RMK AO2 SLP130 T01560144
KHSI 190253Z AUTO 03006KT 9SM OVC007 16/14 A2994 RMK AO2 SLP129 60000 T01560144 50004
KHSI 190153Z AUTO 03008KT 9SM OVC007 16/14 A2994 RMK AO2 RAE05 SLP130 P0000 T01560144
KHSI 190053Z AUTO 03009KT 3SM -RA BR OVC006 16/15 A2993 RMK AO2 RAB46 SLP126 P0000 T01610150
KHSI 182353Z AUTO 05012KT 7SM OVC005 17/16 A2992 RMK AO2 RAE13 SLP125 P0000 60009 T01670156 10194 20161 56008
KHSI 182253Z AUTO 06011KT 5SM -RA BR OVC005 17/16 A2993 RMK AO2 SLP125 P0002 T01720161
KHSI 182240Z AUTO 05011KT 4SM -RA BR OVC004 17/17 A2993 RMK AO2 P0001 T01720167
KHSI 182153Z AUTO 07014G21KT 9SM -RA BKN009 BKN015 OVC036 19/18 A2993 RMK AO2 CIG 006V011 SLP126 P0000 T01890178
KHSI 182133Z AUTO 07011KT 6SM -RA BR OVC009 19/18 A2994 RMK AO2 CIG 006V011 P0000 T01890178
KHSI 182115Z AUTO 09007KT 10SM -RA FEW006 BKN010 OVC070 19/18 A2994 RMK AO2 CIG 008V013 P0000 T01940178
KHSI 182053Z AUTO 08009KT 10SM -RA FEW010 SCT035 OVC070 19/17 A2995 RMK AO2 SLP131 P0001 60007 T01890172 56010
KHSI 182037Z AUTO 08008G15KT 9SM -RA FEW010 OVC070 19/17 A2995 RMK AO2 P0001 T01890172
KHSI 181953Z AUTO 06008KT 4SM -RA BR FEW009 BKN014 OVC085 19/17 A2996 RMK AO2 SLP133 P0003 T01890172
KHSI 181946Z AUTO 05008KT 5SM -RA BR SCT009 BKN080 OVC090 19/18 A2996 RMK AO2 P0002 T01940178
KHSI 181925Z AUTO 06010KT 5SM -RA BR SCT009 BKN016 OVC085 19/18 A2996 RMK AO2 P0001 T01940178
KHSI 181908Z AUTO 06008KT 6SM -RA BR FEW008 SCT013 OVC085 19/18 A2997 RMK AO2 P0001 T01940178
KHSI 181859Z AUTO 05009KT 6SM -RA BR SCT009 BKN017 OVC090 19/18 A2997 RMK AO2 P0000 T01940178
KHSI 181853Z AUTO 06008KT 6SM -RA BR BKN009 OVC090 19/18 A2997 RMK AO2 CIG 006V016 SLP137 P0003 T01940178
KHSI 181836Z AUTO 05010KT 4SM -RA BR BKN009 BKN014 OVC090 19/18 A2997 RMK AO2 P0003 T01890178
KHSI 181823Z AUTO 04009KT 4SM -RA BR SCT009 BKN012 OVC090 19/18 A2997 RMK AO2 P0002 T01890178
KHSI 181801Z AUTO 05008KT 4SM -RA BR SCT009 OVC090 18/17 A2998 RMK AO2 P0000 T01830172
KHSI 181753Z AUTO 04010KT 6SM -RA BR OVC090 18/17 A2998 RMK AO2 SLP141 P0002 60015 T01830172 10189 20178 58004
KHSI 181729Z AUTO 05010KT 8SM -RA SCT007 BKN080 OVC100 18/17 A2998 RMK AO2 P0001 T01830172
KHSI 181718Z AUTO 05010KT 6SM -RA BR BKN006 BKN080 OVC100 18/17 A2998 RMK AO2 CIG 005V011 P0001 T01830172
KHSI 181706Z AUTO 05008KT 5SM -RA BR SCT006 BKN070 OVC080 18/17 A2999 RMK AO2 P0000 T01830172
KHSI 181653Z AUTO 05008KT 3SM -RA BR BKN005 BKN055 OVC080 18/17 A2999 RMK AO2 SLP144 P0003 T01830172
KHSI 181637Z AUTO 05008KT 3SM -RA BR BKN005 BKN055 OVC080 18/17 A2999 RMK AO2 P0002 T01830172
KHSI 181626Z AUTO 04007KT 4SM -RA BR SCT007 OVC085 18/17 A2999 RMK AO2 P0001 T01830172
KHSI 181553Z AUTO 03007KT 4SM -RA BR OVC095 18/17 A2999 RMK AO2 SLP144 P0006 T01830172
KHSI 181453Z AUTO 02008KT 6SM -RA BR OVC095 18/17 A2999 RMK AO2 SLP145 P0002 60004 T01780167 58000